Ringling, MT (59642)

02:17 AM MDT on Juli 28, 2014 (GMT -0600)
MesoWest Deep Creek US12 MP 23.5 MT US MT DOT (MMTDPC) Elev 5870 ft | 46.35 °N, 111.07 °W | Change Station

Current weather conditions updated 38 minutes ago

Clear
Cerah
59 °F
Feels Like 59 °F
N
1
Angin Variable Angin from Arah Tenggara
Gusts 3.0 mph

Today is forecast to be nearly the same temperature as yesterday.

Siang Ini
High -- | Low -- °F
--% Chance of Precip.
Yesterday
High -- | Low -- °F
Precip. -- Inch
6:00 AM 8:58 PM
Bulan Baru, 2% visible
Tekanan 30.14 Inch
Jarak Pandang 10.0 Mil
Awan Cerah
Titik Embun 36 °F
Kelembaban 43%
Rainfall 0.00 Inch
Snow Depth Not available.
UV 0 out of 12
Pollen 5.10 out of 12
Air Quality Not available.
Flu Activity Not available.
METAR KBZN 280756Z AUTO 36004KT 10SM CLR 14/06 A3025 RMK AO2 SLP205 T01390061

More Conditions Fewer Conditions

Tekanan 30.14 Inch
Jarak Pandang 10.0 Mil
Awan Cerah
Titik Embun 36 °F
Kelembaban 43%
Rainfall 0.00 Inch
Snow Depth Not available.
UV 0 out of 12
Pollen 5.10 out of 12
Air Quality Not available.
Flu Activity Not available.
METAR KBZN 280756Z AUTO 36004KT 10SM CLR 14/06 A3025 RMK AO2 SLP205 T01390061

More Conditions Fewer Conditions

10-Day Weather Forecast

Almanac

Astronomi

Jul. 28, 2014 Rise Set
Actual Time 6:00 AM MDT 8:58 PM MDT
Civil Twilight 5:24 AM MDT 9:34 PM MDT
Nautical Twilight 4:39 AM MDT 10:19 PM MDT
Astronomical Twilight 3:44 AM MDT 11:13 PM MDT
Moon 7:54 AM MDT 9:31 PM MDT
Length Of Visible Light 16h 09m
Lama Satu Hari
14h 58m
Tomorrow will be 2m 24s shorter.
Bulan Baru, 2% of the Moon is Illuminated
Siang Ini
Bulan Baru
Aug 3
Triwulan Pertama
Aug 10
Bulan Purnama
Aug 17
Kuartil Terakhir
Aug 25
New

Today's Extremes

State Highs State Lows

Community

WunderPhotos

Upload Photos

1,738,293 photos uploaded!

Nearby

Snow Depth

Station Depth Elevation
Porcupine 1 in 6500 ft
Pickfoot Creek 0 in 6650 ft
Spur Park 0 in 8100 ft
Onion Park 0 in 7410 ft
Stringer Creek 0 in 6550 ft

Earthquake Activity

City Distance Mag. Time & Date
No recent earthquake activity has been reported nearby.
Minimum magnitude displayed is 2.5.

Coastal Water Temperatures

Lokasi Temperatur
No Stations Reporting

Nearby Weather Stations

Station Location Temp Titik Embun Kelembaban Angin Precip. Elev Telah Diperbaharui Type
MesoWest Deep Creek US12 MP 23.5 , Ringling, MT 59 °F 36 °F 43% Arah Tenggara  Pada  1 mph 0.00 Inch / hr 5870 ft 1:39 AM MDT MADIS
RAWS WHITE SULPHUR SPRING MT, White Sulphur Springs, MT 64 °F 39 °F 40% Dari Timur ke Timurlaut  Pada  7 mph 0.00 Inch / hr 5060 ft 12:57 AM MDT MADIS

Show More Stations Show Fewer Stations